Aeroporto :
LOGIN :

Iscrizione | Disclaimer

   EN    FR    IT 

 










Sommario :    VFR   VFR Marginale   IFR   IFR Intensivo   IFR Molto Intensivo
Visibilità : 
Base nubi : 
>= 8 km
>= 3000ft
5 / 8 km
1000 / 3000 ft
1500m / 5 km
500 / 1000 ft
800 / 1500m
200 / 500 ft
< 800m
< 200 ft
Simboli :   Temporali  Nebbia  Neve Forte  Precipitazioni Forti  Vento > 20 kt
SIGMETs :   Varie  Temporali  Ghiacco  Turbolenza  Onda orograficha  Ceneri Vulcaniche






- Altitudine del aeroporto : 322 ft


LHSN - Szolnok

ULTIMO METAR :
  • 121815Z 11004KT CAVOK 12/10 Q1006 RERA NOSIG RMK BLU

METARs OBSOLETI :
  • 121745Z 12004KT 9999 -RA SCT050 OVC083 13/11 Q1006 BECMG NSW RMK BLU
  • 121730Z 12006KT 9999 -RA SCT050 OVC083 13/10 Q1006 RMK BLU
  • 121715Z 11006KT CAVOK 13/10 Q1006 TEMPO -RA RMK BLU
  • 121645Z 08006KT 050V120 CAVOK 12/10 Q1006 TEMPO -RA RMK BLU
  • 121615Z 09006KT 060V130 CAVOK 12/10 Q1006 TEMPO -RA RMK BLU
  • 121545Z 08010KT CAVOK 11/10 Q1006 NOSIG RMK BLU

TAF TAF LHSN
Valido dal 12 a 18 ore il 13 a 03 ore UTC


121715Z 1218/1303 12009KT CAVOK
TEMPO 1218/1224 15014KT
PROB30
TEMPO 1218/1220 9999 -RA -SHRA SCT040 OVC070
TEMPO 1301/1303 8000 -SHRA -RA BKN040 OVC060



MetMap, La meteo Aeronautica in un colpo d'occhio ! - Copyright ORBIFLY Dicembre 2007 - Disclaimer

ORBIFLY MET'MAP TEAM :

Programmazione e sviluppo : Alexandra Zaïnal
Concezione e sviluppo : Baudouin d'Aumeries
Co-Programmazione e sviluppo : Marc-Olivier Méhu
Supporto tecnico e logistico : Manuel Goepfert
Aiuto per la traduzione : Arnaldo La Scala

Contatto : metmap@orbifly.com




FONTI E CREDITI :

   NOAA